This is the latest recevied weather packets stored in our database for station/object W6DSP. If no packets are shown the sender has not sent any weather packets the latest 10 day(s).
| Time | Temp. | Humidity | Pressure | Rain* | Wind** | Luminosity | Snow |
|---|---|---|---|---|---|---|---|
| 1788575986 | 25° C | 92% | 1013.4 hPa | 0 mm | - | - | - |
| 1788575284 | 25° C | 92% | 1013.3 hPa | 0 mm | - | - | - |
| 1788574585 | 25.56° C | 92% | 1013.3 hPa | 0 mm | - | - | - |
| 1788573864 | 25.56° C | 92% | 1013.2 hPa | 0 mm | - | - | - |
| 1788572418 | 25.56° C | 92% | 1013 hPa | 0 mm | - | - | - |
| 1788570956 | 25.56° C | 91% | 1013 hPa | 0 mm | - | - | - |
| 1788568085 | 26.11° C | 90% | 1012.7 hPa | 0 mm | - | - | - |
| 1788562925 | 28.89° C | 81% | 1012.6 hPa | 0 mm | - | - | - |
| 1788562220 | 28.89° C | 80% | 1012.5 hPa | 0 mm | - | - | - |
| 1788557165 | 30° C | 76% | 1013 hPa | 0 mm | - | - | - |
| 1788555699 | 30° C | 77% | 1013.2 hPa | 0 mm | - | - | - |
| 1788552724 | 27.78° C | 79% | 1012.2 hPa | 0 mm | - | - | - |
| 1788551325 | 27.78° C | 79% | 1012.6 hPa | 0 mm | - | - | - |
| 1788550579 | 28.89° C | 73% | 1013.7 hPa | 0 mm | - | - | - |
| 1788549072 | 28.33° C | 75% | 1014.4 hPa | 0 mm | - | - | - |
| 1788545476 | 27.22° C | 76% | 1016.2 hPa | 0 mm | - | - | - |
| 1788544733 | 27.22° C | 74% | 1016.4 hPa | 0 mm | - | - | - |
| 1788541070 | 29.44° C | 76% | 1015.6 hPa | 0 mm | - | - | - |
| 1788539600 | 32.22° C | 68% | 1015.2 hPa | 0 mm | - | - | - |
| 1788538890 | 31.67° C | 71% | 1015.2 hPa | 0 mm | - | - | - |
| 1788538198 | 31.11° C | 74% | 1015.3 hPa | 0 mm | - | - | - |
| 1788537457 | 31.67° C | 69% | 1015.3 hPa | 0 mm | - | - | - |
| 1788536758 | 31.67° C | 72% | 1015.1 hPa | 0 mm | - | - | - |
| 1788535290 | 30.56° C | 74% | 1014.9 hPa | 0 mm | - | - | - |
| 1788528834 | 26.11° C | 87% | 1014.7 hPa | 0 mm | - | - | - |
* Rain latest hour (hover to see other rain measurements)
** Current wind speed in m/s (hover to see current wind gust speed)